createdAt,value
2017-08-24T00:00:13.858Z,0
2017-08-24T00:01:15.285Z,0
2017-08-24T00:02:16.713Z,0
2017-08-24T00:03:18.138Z,0
2017-08-24T00:04:19.565Z,0
2017-08-24T00:05:20.992Z,0
2017-08-24T00:06:22.433Z,0
2017-08-24T00:07:23.861Z,0
2017-08-24T00:08:25.290Z,0
2017-08-24T00:09:26.718Z,0
2017-08-24T00:10:28.150Z,0
2017-08-24T00:11:29.577Z,0
2017-08-24T00:12:31.009Z,0
2017-08-24T00:13:32.438Z,0
2017-08-24T00:14:33.870Z,0
2017-08-24T00:15:35.298Z,0
2017-08-24T00:16:36.727Z,0
2017-08-24T00:17:38.158Z,0
2017-08-24T00:18:39.585Z,0
2017-08-24T00:19:41.014Z,0
2017-08-24T00:20:42.445Z,0
2017-08-24T00:21:43.874Z,0
2017-08-24T00:22:45.314Z,0
2017-08-24T00:23:46.738Z,0
2017-08-24T00:24:48.170Z,0
2017-08-24T00:25:49.598Z,0
2017-08-24T00:26:51.029Z,0
2017-08-24T00:27:52.458Z,0
2017-08-24T00:28:53.887Z,0
2017-08-24T00:29:55.317Z,0
2017-08-24T00:30:56.745Z,0
2017-08-24T00:31:58.177Z,0
2017-08-24T00:32:59.602Z,0
2017-08-24T00:34:01.029Z,0
2017-08-24T00:35:02.459Z,0
2017-08-24T00:36:03.885Z,0
2017-08-24T00:37:05.313Z,0
2017-08-24T00:38:06.740Z,0
2017-08-24T00:39:08.169Z,0
2017-08-24T00:40:09.595Z,0
2017-08-24T00:41:11.022Z,0
2017-08-24T00:42:12.452Z,0
2017-08-24T00:43:13.879Z,0
2017-08-24T00:44:15.307Z,0
2017-08-24T00:45:16.734Z,0
2017-08-24T00:46:18.160Z,0
2017-08-24T00:47:19.587Z,0
2017-08-24T00:48:21.012Z,0
2017-08-24T00:49:22.442Z,0
2017-08-24T00:50:23.862Z,0
2017-08-24T00:51:25.300Z,0
2017-08-24T00:52:26.725Z,0
2017-08-24T00:53:28.153Z,0
2017-08-24T00:54:29.580Z,0
2017-08-24T00:55:31.009Z,0
2017-08-24T00:56:32.438Z,0
2017-08-24T00:57:33.866Z,0
2017-08-24T00:58:35.293Z,0
2017-08-24T00:59:36.726Z,0
2017-08-24T01:00:38.148Z,0
2017-08-24T01:01:39.581Z,0
2017-08-24T01:02:41.004Z,0
2017-08-24T01:03:42.432Z,0
2017-08-24T01:04:43.859Z,0
2017-08-24T01:05:45.286Z,0
2017-08-24T01:06:46.714Z,0
2017-08-24T01:07:48.145Z,0
2017-08-24T01:08:49.568Z,0
2017-08-24T01:09:50.998Z,0
2017-08-24T01:10:52.423Z,0
2017-08-24T01:11:53.850Z,0
2017-08-24T01:12:55.277Z,0
2017-08-24T01:13:56.697Z,0
2017-08-24T01:14:58.136Z,0
2017-08-24T01:15:59.562Z,0
2017-08-24T01:17:00.986Z,0
2017-08-24T01:18:02.416Z,0
2017-08-24T01:19:03.844Z,0
2017-08-24T01:20:05.270Z,0
2017-08-24T01:21:06.700Z,0
2017-08-24T01:22:08.126Z,0
2017-08-24T01:23:09.558Z,0
2017-08-24T01:24:10.988Z,0
2017-08-24T01:25:12.411Z,0
2017-08-24T01:26:13.838Z,0
2017-08-24T01:27:15.256Z,0
2017-08-24T01:28:16.694Z,0
2017-08-24T01:29:18.120Z,0
2017-08-24T01:30:19.574Z,0
2017-08-24T01:31:21.001Z,0
2017-08-24T01:32:22.430Z,0
2017-08-24T01:33:23.855Z,0
2017-08-24T01:34:25.285Z,0
2017-08-24T01:35:26.708Z,0
2017-08-24T01:36:28.137Z,0
2017-08-24T01:37:29.564Z,0
2017-08-24T01:38:30.990Z,0
2017-08-24T01:39:32.420Z,0
2017-08-24T01:40:33.846Z,0
2017-08-24T01:41:35.271Z,0
2017-08-24T01:42:36.699Z,0
2017-08-24T01:43:38.127Z,0
2017-08-24T01:44:39.555Z,0
2017-08-24T01:45:40.979Z,0
2017-08-24T01:46:42.405Z,0
2017-08-24T01:47:43.833Z,0
2017-08-24T01:48:45.259Z,0
2017-08-24T01:49:46.687Z,0
2017-08-24T01:50:48.126Z,0
2017-08-24T01:51:49.542Z,0
2017-08-24T01:52:50.973Z,0
2017-08-24T01:53:52.400Z,0
2017-08-24T01:54:53.825Z,0
2017-08-24T01:55:55.253Z,0
2017-08-24T01:56:56.681Z,0
2017-08-24T01:57:58.108Z,0
2017-08-24T01:58:59.537Z,0
2017-08-24T02:00:00.964Z,0
2017-08-24T02:01:02.380Z,0
2017-08-24T02:02:03.822Z,0
2017-08-24T02:03:05.250Z,0
2017-08-24T02:04:06.680Z,0
2017-08-24T02:05:08.107Z,0
2017-08-24T02:06:09.537Z,0
2017-08-24T02:07:10.961Z,0
2017-08-24T02:08:12.390Z,0
2017-08-24T02:09:13.822Z,0
2017-08-24T02:10:15.251Z,0
2017-08-24T02:11:16.677Z,0
2017-08-24T02:12:18.103Z,0
2017-08-24T02:13:19.531Z,0
2017-08-24T02:14:20.960Z,0
2017-08-24T02:15:22.386Z,0
2017-08-24T02:16:23.814Z,0
2017-08-24T02:17:25.239Z,0
2017-08-24T02:18:26.666Z,0
2017-08-24T02:19:28.098Z,0
2017-08-24T02:20:29.525Z,0
2017-08-24T02:21:30.950Z,0
2017-08-24T02:22:32.375Z,0
2017-08-24T02:23:33.804Z,0
2017-08-24T02:24:35.230Z,0
2017-08-24T02:25:36.663Z,0
2017-08-24T02:26:38.086Z,0
2017-08-24T02:27:39.510Z,0
2017-08-24T02:28:40.937Z,0
2017-08-24T02:29:42.366Z,0
2017-08-24T02:30:43.792Z,0
2017-08-24T02:31:45.222Z,0
2017-08-24T02:32:46.651Z,0
2017-08-24T02:33:48.077Z,0
2017-08-24T02:34:49.503Z,0
2017-08-24T02:35:50.930Z,0
2017-08-24T02:36:52.357Z,0
2017-08-24T02:37:53.782Z,0
2017-08-24T02:38:55.212Z,0
2017-08-24T02:39:56.638Z,0
2017-08-24T02:40:58.064Z,0
2017-08-24T02:41:59.491Z,0
2017-08-24T02:43:00.919Z,0
2017-08-24T02:44:02.351Z,0
2017-08-24T02:45:03.778Z,0
2017-08-24T02:46:05.203Z,0
2017-08-24T02:47:06.634Z,0
2017-08-24T02:48:08.058Z,0
2017-08-24T02:49:09.489Z,0
2017-08-24T02:50:10.941Z,0
2017-08-24T02:51:12.366Z,0
2017-08-24T02:52:13.793Z,0
2017-08-24T02:53:15.221Z,0
2017-08-24T02:54:16.651Z,0
2017-08-24T02:55:18.075Z,0
2017-08-24T02:56:19.503Z,0
2017-08-24T02:57:20.930Z,0
2017-08-24T02:58:22.355Z,0
2017-08-24T02:59:23.780Z,0
2017-08-24T03:00:25.207Z,0
2017-08-24T03:01:26.634Z,0
2017-08-24T03:02:28.057Z,0
2017-08-24T03:03:29.484Z,0
2017-08-24T03:04:30.910Z,0
2017-08-24T03:05:32.337Z,0
2017-08-24T03:06:33.765Z,0
2017-08-24T03:07:35.192Z,0
2017-08-24T03:08:36.616Z,0
2017-08-24T03:09:38.042Z,0
2017-08-24T03:10:39.467Z,0
2017-08-24T03:11:40.897Z,0
2017-08-24T03:12:42.325Z,0
2017-08-24T03:13:43.757Z,0
2017-08-24T03:14:45.187Z,0
2017-08-24T03:15:46.604Z,0
2017-08-24T03:16:48.032Z,0
2017-08-24T03:17:49.455Z,0
2017-08-24T03:18:50.878Z,0
2017-08-24T03:19:52.307Z,0
2017-08-24T03:20:53.735Z,0
2017-08-24T03:21:55.161Z,0
2017-08-24T03:22:56.588Z,0
2017-08-24T03:23:58.014Z,0
2017-08-24T03:24:59.441Z,0
2017-08-24T03:26:00.869Z,0
2017-08-24T03:27:02.295Z,0
2017-08-24T03:28:03.722Z,0
2017-08-24T03:29:05.146Z,0
2017-08-24T03:30:06.572Z,0
2017-08-24T03:31:08.002Z,0
2017-08-24T03:32:09.435Z,0
2017-08-24T03:33:10.861Z,0
2017-08-24T03:34:12.287Z,0
2017-08-24T03:35:13.713Z,0
2017-08-24T03:36:15.139Z,0
2017-08-24T03:37:16.566Z,0
2017-08-24T03:38:17.995Z,0
2017-08-24T03:39:19.431Z,0
2017-08-24T03:40:20.855Z,0
2017-08-24T03:41:22.283Z,0
2017-08-24T03:42:23.706Z,0
2017-08-24T03:43:25.134Z,0
2017-08-24T03:44:26.559Z,0
2017-08-24T03:45:27.985Z,0
2017-08-24T03:46:29.411Z,0
2017-08-24T03:47:30.838Z,0
2017-08-24T03:48:32.261Z,0
2017-08-24T03:49:33.685Z,0
2017-08-24T03:50:35.123Z,0
2017-08-24T03:51:36.543Z,0
2017-08-24T03:52:37.969Z,0
2017-08-24T03:53:39.395Z,0
2017-08-24T03:54:40.818Z,0
2017-08-24T03:55:42.248Z,0
2017-08-24T03:56:43.676Z,0
2017-08-24T03:57:45.104Z,0
2017-08-24T03:58:46.529Z,0
2017-08-24T03:59:47.956Z,0
2017-08-24T04:00:49.386Z,0
2017-08-24T04:01:50.807Z,0
2017-08-24T04:02:52.238Z,0
2017-08-24T04:03:53.661Z,0
2017-08-24T04:04:55.088Z,0
2017-08-24T04:05:56.513Z,0
2017-08-24T04:06:57.939Z,0
2017-08-24T04:07:59.365Z,0
2017-08-24T04:09:00.809Z,0
2017-08-24T04:10:02.234Z,0
2017-08-24T04:11:03.658Z,0
2017-08-24T04:12:05.085Z,0
2017-08-24T04:13:06.510Z,0
2017-08-24T04:14:07.935Z,0
2017-08-24T04:15:09.364Z,0
2017-08-24T04:16:10.789Z,0
2017-08-24T04:17:12.216Z,0
2017-08-24T04:18:13.636Z,0
2017-08-24T04:19:15.069Z,0
2017-08-24T04:20:16.496Z,0
2017-08-24T04:21:17.923Z,0
2017-08-24T04:22:19.348Z,0
2017-08-24T04:23:20.777Z,0
2017-08-24T04:24:22.202Z,0
2017-08-24T04:25:23.629Z,0
2017-08-24T04:26:25.052Z,0
2017-08-24T04:27:26.479Z,0
2017-08-24T04:28:27.905Z,0
2017-08-24T04:29:29.331Z,0
2017-08-24T04:30:30.756Z,0
2017-08-24T04:31:32.182Z,0
2017-08-24T04:32:33.610Z,0
2017-08-24T04:33:35.035Z,0
2017-08-24T04:34:36.459Z,0
2017-08-24T04:35:37.888Z,0
2017-08-24T04:36:39.314Z,0
2017-08-24T04:37:40.742Z,0
2017-08-24T04:38:42.169Z,0
2017-08-24T04:39:43.594Z,0
2017-08-24T04:40:45.020Z,0
2017-08-24T04:41:46.446Z,4
2017-08-24T04:42:47.870Z,4
2017-08-24T04:43:49.302Z,4
2017-08-24T04:44:50.747Z,4
2017-08-24T04:45:52.157Z,4
2017-08-24T04:46:53.586Z,0
2017-08-24T04:47:55.012Z,4
2017-08-24T04:48:56.437Z,4
2017-08-24T04:49:57.864Z,4
2017-08-24T04:50:59.287Z,4
2017-08-24T04:52:00.714Z,8
2017-08-24T04:53:02.140Z,4
2017-08-24T04:54:03.567Z,4
2017-08-24T04:55:04.994Z,4
2017-08-24T04:56:06.415Z,4
2017-08-24T04:57:07.842Z,8
2017-08-24T04:58:09.269Z,8
2017-08-24T04:59:10.700Z,8
2017-08-24T05:00:12.127Z,8
2017-08-24T05:01:13.551Z,8
2017-08-24T05:02:14.984Z,8
2017-08-24T05:03:16.404Z,8
2017-08-24T05:04:17.841Z,8
2017-08-24T05:05:19.256Z,8
2017-08-24T05:06:20.681Z,8
2017-08-24T05:07:22.106Z,8
2017-08-24T05:08:23.535Z,12
2017-08-24T05:09:24.961Z,8
2017-08-24T05:10:26.386Z,8
2017-08-24T05:11:27.816Z,8
2017-08-24T05:12:29.239Z,12
2017-08-24T05:13:30.667Z,12
2017-08-24T05:14:32.094Z,12
2017-08-24T05:15:33.521Z,12
2017-08-24T05:16:34.950Z,12
2017-08-24T05:17:36.374Z,12
2017-08-24T05:18:37.801Z,8
2017-08-24T05:19:39.228Z,8
2017-08-24T05:20:40.653Z,12
2017-08-24T05:21:42.083Z,12
2017-08-24T05:22:43.512Z,12
2017-08-24T05:23:44.935Z,12
2017-08-24T05:24:46.366Z,16
2017-08-24T05:25:47.794Z,16
2017-08-24T05:26:49.225Z,12
2017-08-24T05:27:50.647Z,12
2017-08-24T05:28:52.073Z,16
2017-08-24T05:29:53.499Z,16
2017-08-24T05:30:54.925Z,16
2017-08-24T05:31:56.354Z,16
2017-08-24T05:32:57.781Z,16
2017-08-24T05:33:59.205Z,20
2017-08-24T05:35:00.632Z,16
2017-08-24T05:36:02.062Z,16
2017-08-24T05:37:03.490Z,20
2017-08-24T05:38:04.917Z,20
2017-08-24T05:39:06.347Z,20
2017-08-24T05:40:07.833Z,20
2017-08-24T05:41:09.262Z,20
2017-08-24T05:42:10.687Z,24
2017-08-24T05:43:12.116Z,24
2017-08-24T05:44:13.549Z,20
2017-08-24T05:45:14.975Z,20
2017-08-24T05:46:16.428Z,20
2017-08-24T05:47:17.837Z,20
2017-08-24T05:48:19.265Z,24
2017-08-24T05:49:20.689Z,24
2017-08-24T05:50:22.121Z,24
2017-08-24T05:51:23.549Z,24
2017-08-24T05:52:24.977Z,28
2017-08-24T05:53:26.404Z,28
2017-08-24T05:54:27.829Z,24
2017-08-24T05:55:29.259Z,24
2017-08-24T05:56:30.685Z,28
2017-08-24T05:57:32.113Z,28
2017-08-24T05:58:33.543Z,28
2017-08-24T05:59:34.969Z,24
2017-08-24T06:00:36.396Z,24
2017-08-24T06:01:37.823Z,24
2017-08-24T06:02:39.247Z,24
2017-08-24T06:03:40.680Z,24
2017-08-24T06:04:42.110Z,24
2017-08-24T06:05:43.534Z,24
2017-08-24T06:06:44.961Z,24
2017-08-24T06:07:46.387Z,24
2017-08-24T06:08:47.813Z,24
2017-08-24T06:09:49.240Z,24
2017-08-24T06:10:50.670Z,24
2017-08-24T06:11:52.098Z,28
2017-08-24T06:12:53.524Z,24
2017-08-24T06:13:54.948Z,24
2017-08-24T06:14:56.377Z,28
2017-08-24T06:15:57.804Z,28
2017-08-24T06:16:59.230Z,32
2017-08-24T06:18:00.655Z,28
2017-08-24T06:19:02.083Z,32
2017-08-24T06:20:03.511Z,32
2017-08-24T06:21:04.940Z,36
2017-08-24T06:22:06.365Z,32
2017-08-24T06:23:07.792Z,36
2017-08-24T06:24:09.227Z,36
2017-08-24T06:25:10.649Z,36
2017-08-24T06:26:12.074Z,36
2017-08-24T06:27:13.503Z,36
2017-08-24T06:28:14.932Z,40
2017-08-24T06:29:16.357Z,40
2017-08-24T06:30:17.779Z,40
2017-08-24T06:31:19.210Z,40
2017-08-24T06:32:20.638Z,40
2017-08-24T06:33:22.064Z,40
2017-08-24T06:34:24.396Z,44
2017-08-24T06:35:25.819Z,44
2017-08-24T06:36:27.244Z,44
2017-08-24T06:37:28.674Z,44
2017-08-24T06:38:30.098Z,44
2017-08-24T06:39:31.523Z,48
2017-08-24T06:40:32.949Z,44
2017-08-24T06:41:34.377Z,48
2017-08-24T06:42:35.801Z,48
2017-08-24T06:43:37.230Z,48
2017-08-24T06:44:38.655Z,52
2017-08-24T06:45:40.081Z,52
2017-08-24T06:46:41.511Z,52
2017-08-24T06:47:42.938Z,56
2017-08-24T06:48:44.365Z,52
2017-08-24T06:49:45.796Z,48
2017-08-24T06:50:47.221Z,48
2017-08-24T06:51:48.651Z,48
2017-08-24T06:52:50.076Z,48
2017-08-24T06:53:51.502Z,48
2017-08-24T06:54:52.930Z,48
2017-08-24T06:55:54.357Z,52
2017-08-24T06:56:55.786Z,52
2017-08-24T06:57:57.217Z,52
2017-08-24T06:58:58.648Z,52
2017-08-24T07:00:00.074Z,56
2017-08-24T07:01:01.501Z,60
2017-08-24T07:02:02.928Z,60
2017-08-24T07:03:04.356Z,60
2017-08-24T07:04:05.784Z,60
2017-08-24T07:05:07.210Z,60
2017-08-24T07:06:08.640Z,64
2017-08-24T07:07:10.066Z,68
2017-08-24T07:08:11.494Z,68
2017-08-24T07:09:12.922Z,72
2017-08-24T07:10:14.351Z,76
2017-08-24T07:11:15.776Z,72
2017-08-24T07:12:17.202Z,72
2017-08-24T07:13:18.632Z,68
2017-08-24T07:14:20.058Z,76
2017-08-24T07:15:21.487Z,76
2017-08-24T07:16:22.922Z,72
2017-08-24T07:17:24.346Z,72
2017-08-24T07:18:25.775Z,76
2017-08-24T07:19:27.201Z,72
2017-08-24T07:20:28.631Z,72
2017-08-24T07:21:30.056Z,76
2017-08-24T07:22:31.483Z,76
2017-08-24T07:23:32.911Z,72
2017-08-24T07:24:34.337Z,76
2017-08-24T07:25:35.764Z,72
2017-08-24T07:26:37.192Z,76
2017-08-24T07:27:38.620Z,76
2017-08-24T07:28:40.049Z,76
2017-08-24T07:29:41.475Z,76
2017-08-24T07:30:42.904Z,72
2017-08-24T07:31:44.330Z,72
2017-08-24T07:32:45.755Z,76
2017-08-24T07:33:47.185Z,72
2017-08-24T07:34:48.608Z,72
2017-08-24T07:35:50.038Z,68
2017-08-24T07:36:51.463Z,72
2017-08-24T07:37:52.890Z,72
2017-08-24T07:38:54.316Z,72
2017-08-24T07:39:55.746Z,68
2017-08-24T07:40:57.181Z,64
2017-08-24T07:41:58.617Z,68
2017-08-24T07:43:00.047Z,68
2017-08-24T07:44:01.475Z,72
2017-08-24T07:45:02.903Z,72
2017-08-24T07:46:04.331Z,72
2017-08-24T07:47:05.757Z,72
2017-08-24T07:48:07.186Z,72
2017-08-24T07:49:08.622Z,72
2017-08-24T07:50:10.051Z,68
2017-08-24T07:51:11.482Z,72
2017-08-24T07:52:12.912Z,72
2017-08-24T07:53:14.338Z,72
2017-08-24T07:54:15.766Z,72
2017-08-24T07:55:17.196Z,76
2017-08-24T07:56:18.622Z,88
2017-08-24T07:57:20.070Z,84
2017-08-24T07:58:21.506Z,76
2017-08-24T07:59:22.911Z,84
2017-08-24T08:00:24.340Z,88
2017-08-24T08:01:25.769Z,88
2017-08-24T08:02:27.197Z,100
2017-08-24T08:03:28.627Z,84
2017-08-24T08:04:30.056Z,80
2017-08-24T08:05:31.484Z,72
2017-08-24T08:06:32.910Z,76
2017-08-24T08:07:34.337Z,76
2017-08-24T08:08:35.767Z,92
2017-08-24T08:09:37.193Z,92
2017-08-24T08:10:38.623Z,100
2017-08-24T08:11:40.048Z,96
2017-08-24T08:12:41.478Z,88
2017-08-24T08:13:42.907Z,84
2017-08-24T08:14:44.336Z,88
2017-08-24T08:15:45.771Z,92
2017-08-24T08:16:47.201Z,92
2017-08-24T08:17:48.626Z,80
2017-08-24T08:18:50.058Z,100
2017-08-24T08:19:51.484Z,96
2017-08-24T08:20:52.912Z,100
2017-08-24T08:21:54.342Z,104
2017-08-24T08:22:55.769Z,96
2017-08-24T08:23:57.199Z,100
2017-08-24T08:24:58.626Z,96
2017-08-24T08:26:00.053Z,92
2017-08-24T08:27:01.485Z,92
2017-08-24T08:28:02.913Z,92
2017-08-24T08:29:04.340Z,84
2017-08-24T08:30:05.769Z,84
2017-08-24T08:31:07.195Z,84
2017-08-24T08:32:08.622Z,92
2017-08-24T08:33:10.077Z,100
2017-08-24T08:34:11.505Z,108
2017-08-24T08:35:12.936Z,108
2017-08-24T08:36:14.364Z,112
2017-08-24T08:37:15.794Z,116
2017-08-24T08:38:17.225Z,112
2017-08-24T08:39:18.665Z,120
2017-08-24T08:40:20.112Z,128
2017-08-24T08:41:21.539Z,124
2017-08-24T08:42:22.970Z,124
2017-08-24T08:43:24.398Z,116
2017-08-24T08:44:25.824Z,112
2017-08-24T08:45:27.249Z,112
2017-08-24T08:46:28.675Z,100
2017-08-24T08:47:30.097Z,96
2017-08-24T08:48:31.522Z,104
2017-08-24T08:49:32.948Z,108
2017-08-24T08:50:34.373Z,112
2017-08-24T08:51:35.794Z,112
2017-08-24T08:52:37.217Z,112
2017-08-24T08:53:38.641Z,112
2017-08-24T08:54:40.065Z,108
2017-08-24T08:55:41.489Z,108
2017-08-24T08:56:42.909Z,108
2017-08-24T08:57:44.341Z,108
2017-08-24T08:58:45.760Z,108
2017-08-24T08:59:47.184Z,116
2017-08-24T09:00:48.608Z,120
2017-08-24T09:01:50.036Z,116
2017-08-24T09:02:51.460Z,116
2017-08-24T09:03:52.884Z,128
2017-08-24T09:04:54.307Z,132
2017-08-24T09:05:56.486Z,132
2017-08-24T09:06:57.915Z,136
2017-08-24T09:07:59.340Z,140
2017-08-24T09:09:00.781Z,136
2017-08-24T09:10:02.208Z,132
2017-08-24T09:11:03.634Z,132
2017-08-24T09:12:05.089Z,140
2017-08-24T09:13:06.515Z,140
2017-08-24T09:14:07.941Z,136
2017-08-24T09:15:09.369Z,128
2017-08-24T09:16:10.793Z,128
2017-08-24T09:17:12.216Z,128
2017-08-24T09:18:13.644Z,132
2017-08-24T09:19:15.074Z,132
2017-08-24T09:20:16.496Z,136
2017-08-24T09:21:17.923Z,132
2017-08-24T09:22:19.349Z,136
2017-08-24T09:23:20.774Z,132
2017-08-24T09:24:22.198Z,132
2017-08-24T09:25:23.623Z,136
2017-08-24T09:26:25.055Z,136
2017-08-24T09:27:26.479Z,140
2017-08-24T09:28:27.899Z,120
2017-08-24T09:29:29.328Z,140
2017-08-24T09:30:30.755Z,148
2017-08-24T09:31:32.200Z,144
2017-08-24T09:32:33.622Z,144
2017-08-24T09:33:35.334Z,140
2017-08-24T09:34:36.760Z,144
2017-08-24T09:35:38.184Z,140
2017-08-24T09:36:39.609Z,144
2017-08-24T09:37:41.029Z,140
2017-08-24T09:38:42.456Z,140
2017-08-24T09:39:43.884Z,136
2017-08-24T09:40:45.308Z,136
2017-08-24T09:41:46.735Z,140
2017-08-24T09:42:48.159Z,144
2017-08-24T09:43:49.585Z,140
2017-08-24T09:44:51.011Z,144
2017-08-24T09:45:52.436Z,144
2017-08-24T09:46:53.860Z,144
2017-08-24T09:47:55.285Z,144
2017-08-24T09:48:56.710Z,144
2017-08-24T09:49:58.137Z,144
2017-08-24T09:50:59.564Z,148
2017-08-24T09:52:00.996Z,148
2017-08-24T09:53:02.415Z,148
2017-08-24T09:54:03.840Z,148
2017-08-24T09:55:05.271Z,148
2017-08-24T09:56:06.702Z,148
2017-08-24T09:57:08.126Z,152
2017-08-24T09:58:09.553Z,152
2017-08-24T09:59:10.992Z,152
2017-08-24T10:00:12.416Z,152
2017-08-24T10:01:13.839Z,152
2017-08-24T10:02:15.266Z,152
2017-08-24T10:03:16.691Z,152
2017-08-24T10:04:18.116Z,148
2017-08-24T10:05:19.542Z,148
2017-08-24T10:06:20.970Z,152
2017-08-24T10:07:22.393Z,148
2017-08-24T10:08:23.817Z,148
2017-08-24T10:09:25.244Z,148
2017-08-24T10:10:26.666Z,148
2017-08-24T10:11:28.091Z,140
2017-08-24T10:12:29.517Z,136
2017-08-24T10:13:30.941Z,132
2017-08-24T10:14:32.363Z,136
2017-08-24T10:15:33.790Z,136
2017-08-24T10:16:35.219Z,132
2017-08-24T10:17:36.645Z,128
2017-08-24T10:18:38.071Z,124
2017-08-24T10:19:39.500Z,120
2017-08-24T10:20:40.925Z,116
2017-08-24T10:21:42.350Z,120
2017-08-24T10:22:43.792Z,116
2017-08-24T10:23:45.231Z,108
2017-08-24T10:24:46.655Z,104
2017-08-24T10:25:48.079Z,100
2017-08-24T10:26:49.503Z,96
2017-08-24T10:27:50.935Z,100
2017-08-24T10:28:52.472Z,100
2017-08-24T10:29:53.854Z,112
2017-08-24T10:30:55.281Z,116
2017-08-24T10:31:56.691Z,124
2017-08-24T10:32:58.115Z,112
2017-08-24T10:33:59.540Z,120
2017-08-24T10:35:00.964Z,124
2017-08-24T10:36:02.394Z,132
2017-08-24T10:37:03.821Z,112
2017-08-24T10:38:05.246Z,104
2017-08-24T10:39:06.692Z,92
2017-08-24T10:40:08.115Z,104
2017-08-24T10:41:09.537Z,112
2017-08-24T10:42:10.968Z,112
2017-08-24T10:43:12.395Z,112
2017-08-24T10:44:13.821Z,120
2017-08-24T10:45:15.244Z,116
2017-08-24T10:46:16.720Z,124
2017-08-24T10:47:18.145Z,132
2017-08-24T10:48:19.571Z,128
2017-08-24T10:49:21.000Z,128
2017-08-24T10:50:22.423Z,124
2017-08-24T10:51:23.851Z,112
2017-08-24T10:52:25.277Z,112
2017-08-24T10:53:26.704Z,104
2017-08-24T10:54:28.132Z,120
2017-08-24T10:55:29.555Z,120
2017-08-24T10:56:30.982Z,132
2017-08-24T10:57:32.434Z,160
2017-08-24T10:58:33.866Z,168
2017-08-24T10:59:35.292Z,160
2017-08-24T11:00:36.715Z,152
2017-08-24T11:01:38.145Z,164
2017-08-24T11:02:39.568Z,164
2017-08-24T11:03:40.991Z,148
2017-08-24T11:04:42.419Z,144
2017-08-24T11:05:43.846Z,148
2017-08-24T11:06:45.267Z,124
2017-08-24T11:07:46.694Z,132
2017-08-24T11:08:48.118Z,104
2017-08-24T11:09:49.542Z,104
2017-08-24T11:10:50.968Z,136
2017-08-24T11:11:52.397Z,116
2017-08-24T11:12:53.827Z,108
2017-08-24T11:13:55.253Z,108
2017-08-24T11:14:56.677Z,128
2017-08-24T11:15:58.101Z,112
2017-08-24T11:16:59.537Z,160
2017-08-24T11:18:00.953Z,120
2017-08-24T11:19:02.375Z,128
2017-08-24T11:20:03.803Z,124
2017-08-24T11:21:05.228Z,100
2017-08-24T11:22:06.654Z,140
2017-08-24T11:23:08.079Z,112
2017-08-24T11:24:09.501Z,148
2017-08-24T11:25:10.927Z,152
2017-08-24T11:26:12.357Z,148
2017-08-24T11:27:13.784Z,144
2017-08-24T11:28:15.209Z,148
2017-08-24T11:29:16.632Z,128
2017-08-24T11:30:18.057Z,132
2017-08-24T11:31:19.486Z,128
2017-08-24T11:32:20.912Z,124
2017-08-24T11:33:22.336Z,96
2017-08-24T11:34:23.827Z,136
2017-08-24T11:35:25.254Z,136
2017-08-24T11:36:26.686Z,140
2017-08-24T11:37:28.112Z,140
2017-08-24T11:38:29.537Z,140
2017-08-24T11:39:30.961Z,144
2017-08-24T11:40:32.386Z,144
2017-08-24T11:41:33.810Z,152
2017-08-24T11:42:35.237Z,152
2017-08-24T11:43:36.660Z,136
2017-08-24T11:44:38.090Z,96
2017-08-24T11:45:39.523Z,148
2017-08-24T11:46:40.988Z,152
2017-08-24T11:47:42.378Z,152
2017-08-24T11:48:43.830Z,152
2017-08-24T11:49:45.257Z,152
2017-08-24T11:50:46.684Z,156
2017-08-24T11:51:48.111Z,156
2017-08-24T11:52:49.534Z,156
2017-08-24T11:53:50.959Z,152
2017-08-24T11:54:52.394Z,156
2017-08-24T11:55:53.809Z,156
2017-08-24T11:56:55.236Z,152
2017-08-24T11:57:56.662Z,152
2017-08-24T11:58:58.089Z,148
2017-08-24T11:59:59.514Z,152
2017-08-24T12:01:00.949Z,152
2017-08-24T12:02:02.371Z,160
2017-08-24T12:03:03.796Z,160
2017-08-24T12:04:05.216Z,168
2017-08-24T12:05:06.649Z,176
2017-08-24T12:06:08.074Z,176
2017-08-24T12:07:09.511Z,176
2017-08-24T12:08:10.934Z,172
2017-08-24T12:09:12.363Z,168
2017-08-24T12:10:13.784Z,168
2017-08-24T12:11:15.212Z,172
2017-08-24T12:12:16.636Z,176
2017-08-24T12:13:18.064Z,172
2017-08-24T12:14:19.491Z,172
2017-08-24T12:15:20.918Z,172
2017-08-24T12:16:22.344Z,168
2017-08-24T12:17:23.768Z,172
2017-08-24T12:18:25.201Z,180
2017-08-24T12:19:26.623Z,192
2017-08-24T12:20:28.052Z,204
2017-08-24T12:21:29.475Z,204
2017-08-24T12:22:30.903Z,200
2017-08-24T12:23:32.329Z,196
2017-08-24T12:24:33.757Z,204
2017-08-24T12:25:35.184Z,196
2017-08-24T12:26:36.610Z,196
2017-08-24T12:27:38.035Z,196
2017-08-24T12:28:39.463Z,200
2017-08-24T12:29:40.885Z,204
2017-08-24T12:30:42.312Z,208
2017-08-24T12:31:43.736Z,216
2017-08-24T12:32:45.162Z,220
2017-08-24T12:33:46.586Z,228
2017-08-24T12:34:48.017Z,236
2017-08-24T12:35:49.440Z,236
2017-08-24T12:36:50.868Z,196
2017-08-24T12:37:52.292Z,212
2017-08-24T12:38:53.719Z,196
2017-08-24T12:39:55.151Z,156
2017-08-24T12:40:56.573Z,164
2017-08-24T12:41:57.998Z,232
2017-08-24T12:42:59.428Z,244
2017-08-24T12:44:00.850Z,240
2017-08-24T12:45:02.294Z,232
2017-08-24T12:46:03.719Z,232
2017-08-24T12:47:05.150Z,228
2017-08-24T12:48:06.652Z,172
2017-08-24T12:49:08.091Z,124
2017-08-24T12:50:09.516Z,120
2017-08-24T12:51:10.957Z,136
2017-08-24T12:52:12.378Z,216
2017-08-24T12:53:13.805Z,248
2017-08-24T12:54:15.231Z,256
2017-08-24T12:55:16.657Z,212
2017-08-24T12:56:18.088Z,216
2017-08-24T12:57:19.515Z,168
2017-08-24T12:58:20.941Z,208
2017-08-24T12:59:22.368Z,256
2017-08-24T13:00:23.814Z,240
2017-08-24T13:01:25.240Z,268
2017-08-24T13:02:26.668Z,228
2017-08-24T13:03:28.094Z,280
2017-08-24T13:04:29.519Z,284
2017-08-24T13:05:30.945Z,172
2017-08-24T13:06:32.372Z,168
2017-08-24T13:07:33.796Z,176
2017-08-24T13:08:35.225Z,184
2017-08-24T13:09:36.650Z,196
2017-08-24T13:10:38.076Z,208
2017-08-24T13:11:39.502Z,328
2017-08-24T13:12:40.934Z,320
2017-08-24T13:13:42.361Z,172
2017-08-24T13:14:43.785Z,160
2017-08-24T13:15:45.214Z,176
2017-08-24T13:16:46.639Z,188
2017-08-24T13:17:48.065Z,176
2017-08-24T13:18:49.494Z,308
2017-08-24T13:19:50.921Z,312
2017-08-24T13:20:52.352Z,320
2017-08-24T13:21:53.780Z,328
2017-08-24T13:22:55.204Z,332
2017-08-24T13:23:56.637Z,332
2017-08-24T13:24:58.064Z,332
2017-08-24T13:25:59.488Z,328
2017-08-24T13:27:00.916Z,176
2017-08-24T13:28:02.361Z,136
2017-08-24T13:29:03.807Z,144
2017-08-24T13:30:05.256Z,152
2017-08-24T13:31:06.681Z,176
2017-08-24T13:32:08.107Z,184
2017-08-24T13:33:09.533Z,204
2017-08-24T13:34:10.964Z,448
2017-08-24T13:35:12.392Z,516
2017-08-24T13:36:13.818Z,516
2017-08-24T13:37:15.243Z,600
2017-08-24T13:38:17.441Z,772
2017-08-24T13:39:18.872Z,816
2017-08-24T13:40:23.031Z,340
2017-08-24T13:41:25.040Z,184
2017-08-24T13:42:26.470Z,200
2017-08-24T13:43:27.902Z,200
2017-08-24T13:44:29.349Z,224
2017-08-24T13:45:30.775Z,188
2017-08-24T13:46:32.458Z,500
2017-08-24T13:47:33.939Z,1564
2017-08-24T13:48:35.368Z,1784
2017-08-24T13:49:36.875Z,1672
2017-08-24T13:50:39.169Z,1296
2017-08-24T13:51:40.620Z,1336
2017-08-24T13:52:42.045Z,1248
2017-08-24T13:53:43.475Z,1356
2017-08-24T13:54:44.903Z,1276
2017-08-24T13:55:46.334Z,1356
2017-08-24T13:56:47.770Z,1336
2017-08-24T13:57:49.205Z,1144
2017-08-24T13:58:50.636Z,1080
2017-08-24T13:59:52.149Z,1060
2017-08-24T14:00:54.556Z,1024
2017-08-24T14:01:55.988Z,1012
2017-08-24T14:02:57.417Z,972
2017-08-24T14:03:58.878Z,952
2017-08-24T14:05:00.387Z,760
2017-08-24T14:06:01.947Z,164
2017-08-24T14:07:03.491Z,148
2017-08-24T14:08:04.920Z,156
2017-08-24T14:09:06.348Z,164
2017-08-24T14:10:07.797Z,180
2017-08-24T14:11:10.038Z,816
2017-08-24T14:12:11.507Z,1024
2017-08-24T14:13:12.942Z,1012
2017-08-24T14:14:14.408Z,1040
2017-08-24T14:15:15.833Z,1056
2017-08-24T14:16:17.312Z,1068
2017-08-24T14:17:18.743Z,1072
2017-08-24T14:18:20.176Z,1072
2017-08-24T14:19:21.719Z,1072
2017-08-24T14:20:23.156Z,1076
2017-08-24T14:21:25.533Z,1100
2017-08-24T14:22:26.963Z,1108
2017-08-24T14:23:28.395Z,1064
2017-08-24T14:24:29.825Z,1028
2017-08-24T14:25:31.279Z,1036
2017-08-24T14:26:32.705Z,240
2017-08-24T14:27:34.140Z,200
2017-08-24T14:28:35.572Z,224
2017-08-24T14:29:37.037Z,176
2017-08-24T14:30:38.978Z,164
2017-08-24T14:31:40.418Z,176
2017-08-24T14:32:41.847Z,232